PWSweather.com
Personal Weather Stations
Station Observations
KFLPOINC2
Poinciana Kissimmee, Poinciana, FL 34758

Poinciana KissimmeePoinciana, FL 34758

Lat: 28.161417, Lon: -81.477557

Elevation: 88

Station Type: Ambient Weather WS 2080

Latest ConditionsUpdated 8:15:01 AM EDT Friday, Jul 3, 2015
Currently Today's Max Today's Min Today's Average
Temperature 78.8°F26.0°C 78.8°F26.0°C 72.0°F22.2°C 74.0°F23.3°C
Dew Point 75.7°F24.3°C 75.8°F24.3°C 69.9°F21.1°C 71.3°F21.8°C
Winds 2.2 mph SE3.5 kmh SE 3.1 mph SE5.0 kmh SE - 0.5 mph 0.8 kmh
Wind Gusts 4.5 mph7.2 kmh 5.4 mph8.7 kmh - -
Humidity 90% 95% 84% 91%
Pressure 29.92 in1013.2 mb 29.92 in1013.2 mb 29.92 in1013.2 mb -
Hour Temp Dew Point Humidity Winds Wind Gusts Pressure Precip Precip Rate Daily Precip Total
08:15 AM 78.8°F26.0°C 75.7°F24.3°C 90% 2.2 mph SE3.5 kmh SE 4.5 mph7.2 kmh 29.92 in1013.2 mb 0.00 in0.0 mm 0.00 in0.0 mm 0.00 in0.0 mm
08:00 AM 77.9°F25.5°C 75.8°F24.3°C 93% 1.6 mph SE2.6 kmh SE 3.1 mph5.0 kmh 29.92 in1013.2 mb 0.00 in0.0 mm 0.00 in0.0 mm 0.00 in0.0 mm
07:45 AM 75.9°F24.4°C 74.1°F23.4°C 94% 2.2 mph SE3.5 kmh SE 3.1 mph5.0 kmh 29.92 in1013.2 mb 0.00 in0.0 mm 0.00 in0.0 mm 0.00 in0.0 mm
07:30 AM 74.7°F23.7°C 73.2°F22.9°C 95% Calm Calm -- 29.92 in1013.2 mb 0.00 in0.0 mm 0.00 in0.0 mm 0.00 in0.0 mm
07:15 AM 73.2°F22.9°C 71.4°F21.9°C 94% Calm Calm -- 29.92 in1013.2 mb 0.00 in0.0 mm 0.00 in0.0 mm 0.00 in0.0 mm
07:00 AM 72.5°F22.5°C 70.4°F21.3°C 93% Calm Calm -- 29.92 in1013.2 mb 0.00 in0.0 mm 0.00 in0.0 mm 0.00 in0.0 mm
06:45 AM 72.1°F22.3°C 70.0°F21.1°C 93% Calm Calm -- 29.92 in1013.2 mb 0.00 in0.0 mm 0.00 in0.0 mm 0.00 in0.0 mm
06:30 AM 72.0°F22.2°C 69.9°F21.1°C 93% Calm Calm -- 29.92 in1013.2 mb 0.00 in0.0 mm 0.00 in0.0 mm 0.00 in0.0 mm
06:15 AM 72.1°F22.3°C 70.0°F21.1°C 93% Calm Calm -- 29.92 in1013.2 mb 0.00 in0.0 mm 0.00 in0.0 mm 0.00 in0.0 mm
06:00 AM 72.1°F22.3°C 70.0°F21.1°C 93% Calm Calm -- 29.92 in1013.2 mb 0.00 in0.0 mm 0.00 in0.0 mm 0.00 in0.0 mm
05:45 AM 72.1°F22.3°C 70.0°F21.1°C 93% Calm Calm -- 29.92 in1013.2 mb 0.00 in0.0 mm 0.00 in0.0 mm 0.00 in0.0 mm
05:30 AM 72.1°F22.3°C 70.0°F21.1°C 93% Calm Calm -- 29.92 in1013.2 mb 0.00 in0.0 mm 0.00 in0.0 mm 0.00 in0.0 mm
05:15 AM 72.5°F22.5°C 70.1°F21.2°C 92% Calm Calm -- 29.92 in1013.2 mb 0.00 in0.0 mm 0.00 in0.0 mm 0.00 in0.0 mm
05:00 AM 72.7°F22.6°C 70.3°F21.3°C 92% Calm Calm -- 29.92 in1013.2 mb 0.00 in0.0 mm 0.00 in0.0 mm 0.00 in0.0 mm
04:45 AM 72.9°F22.7°C 70.4°F21.3°C 92% Calm Calm -- 29.92 in1013.2 mb 0.00 in0.0 mm 0.00 in0.0 mm 0.00 in0.0 mm
04:30 AM 72.9°F22.7°C 70.4°F21.3°C 92% Calm Calm -- 29.92 in1013.2 mb 0.00 in0.0 mm 0.00 in0.0 mm 0.00 in0.0 mm
04:15 AM 72.9°F22.7°C 70.4°F21.3°C 92% Calm Calm -- 29.92 in1013.2 mb 0.00 in0.0 mm 0.00 in0.0 mm 0.00 in0.0 mm
04:00 AM 73.0°F22.8°C 70.3°F21.3°C 91% Calm Calm -- 29.92 in1013.2 mb 0.00 in0.0 mm 0.00 in0.0 mm 0.00 in0.0 mm
03:45 AM 73.2°F22.9°C 70.5°F21.4°C 91% Calm Calm -- 29.92 in1013.2 mb 0.00 in0.0 mm 0.00 in0.0 mm 0.00 in0.0 mm
03:30 AM 73.2°F22.9°C 70.5°F21.4°C 91% Calm Calm -- 29.92 in1013.2 mb 0.00 in0.0 mm 0.00 in0.0 mm 0.00 in0.0 mm
03:15 AM 73.2°F22.9°C 70.5°F21.4°C 91% Calm Calm -- 29.92 in1013.2 mb 0.00 in0.0 mm 0.00 in0.0 mm 0.00 in0.0 mm
03:00 AM 73.4°F23.0°C 71.0°F21.7°C 92% Calm Calm 2.2 mph3.5 kmh 29.92 in1013.2 mb 0.00 in0.0 mm 0.00 in0.0 mm 0.00 in0.0 mm
02:45 AM 73.4°F23.0°C 71.0°F21.7°C 92% Calm Calm -- 29.92 in1013.2 mb 0.00 in0.0 mm 0.00 in0.0 mm 0.00 in0.0 mm
02:30 AM 73.6°F23.1°C 71.2°F21.8°C 92% Calm Calm -- 29.92 in1013.2 mb 0.00 in0.0 mm 0.00 in0.0 mm 0.00 in0.0 mm
02:15 AM 73.9°F23.3°C 71.2°F21.8°C 91% Calm Calm -- 29.92 in1013.2 mb 0.00 in0.0 mm 0.00 in0.0 mm 0.00 in0.0 mm
02:00 AM 74.5°F23.6°C 71.4°F21.9°C 90% Calm Calm -- 29.92 in1013.2 mb 0.00 in0.0 mm 0.00 in0.0 mm 0.00 in0.0 mm
01:45 AM 74.8°F23.8°C 71.4°F21.9°C 89% Calm Calm -- 29.92 in1013.2 mb 0.00 in0.0 mm 0.00 in0.0 mm 0.00 in0.0 mm
01:30 AM 75.4°F24.1°C 71.6°F22.0°C 88% Calm Calm -- 29.92 in1013.2 mb 0.00 in0.0 mm 0.00 in0.0 mm 0.00 in0.0 mm
01:15 AM 75.6°F24.2°C 71.8°F22.1°C 88% Calm Calm 2.2 mph3.5 kmh 29.92 in1013.2 mb 0.00 in0.0 mm 0.00 in0.0 mm 0.00 in0.0 mm
01:00 AM 75.7°F24.3°C 72.3°F22.4°C 89% Calm Calm 3.1 mph5.0 kmh 29.92 in1013.2 mb 0.00 in0.0 mm 0.00 in0.0 mm 0.00 in0.0 mm
12:45 AM 75.7°F24.3°C 72.0°F22.2°C 88% 1.6 mph SE2.6 kmh SE 3.8 mph6.1 kmh 29.92 in1013.2 mb 0.00 in0.0 mm 0.00 in0.0 mm 0.00 in0.0 mm
12:30 AM 75.9°F24.4°C 72.2°F22.3°C 88% 3.1 mph SE5.0 kmh SE 5.4 mph8.7 kmh 29.92 in1013.2 mb 0.00 in0.0 mm 0.00 in0.0 mm 0.00 in0.0 mm
12:15 AM 76.1°F24.5°C 71.7°F22.1°C 86% 3.1 mph SE5.0 kmh SE 5.4 mph8.7 kmh 29.92 in1013.2 mb 0.00 in0.0 mm 0.00 in0.0 mm 0.00 in0.0 mm
12:00 AM 76.1°F24.5°C 71.0°F21.7°C 84% 2.2 mph SE3.5 kmh SE 3.1 mph5.0 kmh 29.92 in1013.2 mb 0.00 in0.0 mm 0.00 in0.0 mm 0.00 in0.0 mm